sensor_id;sensor_type;location;lat;lon;timestamp;temperature;humidity
8676;DHT22;4375;52.486;13.424;2023-12-14T00:00:18;4.80;99.90
8676;DHT22;4375;52.486;13.424;2023-12-14T00:02:44;4.80;99.90
8676;DHT22;4375;52.486;13.424;2023-12-14T00:05:10;4.70;99.90
8676;DHT22;4375;52.486;13.424;2023-12-14T00:07:36;4.70;99.90
8676;DHT22;4375;52.486;13.424;2023-12-14T00:10:02;4.70;99.90
8676;DHT22;4375;52.486;13.424;2023-12-14T00:12:28;4.80;99.90
8676;DHT22;4375;52.486;13.424;2023-12-14T00:14:54;4.70;99.90
8676;DHT22;4375;52.486;13.424;2023-12-14T00:17:19;4.60;99.90
8676;DHT22;4375;52.486;13.424;2023-12-14T00:19:45;4.60;99.90
8676;DHT22;4375;52.486;13.424;2023-12-14T00:22:11;4.60;99.90
8676;DHT22;4375;52.486;13.424;2023-12-14T00:24:36;4.70;99.90
8676;DHT22;4375;52.486;13.424;2023-12-14T00:27:02;4.70;99.90
8676;DHT22;4375;52.486;13.424;2023-12-14T00:29:28;4.60;99.90
8676;DHT22;4375;52.486;13.424;2023-12-14T00:31:53;4.60;99.90
8676;DHT22;4375;52.486;13.424;2023-12-14T00:34:19;4.60;99.90
8676;DHT22;4375;52.486;13.424;2023-12-14T00:36:45;4.60;99.90
8676;DHT22;4375;52.486;13.424;2023-12-14T00:39:10;4.60;99.90
8676;DHT22;4375;52.486;13.424;2023-12-14T00:41:36;4.60;99.90
8676;DHT22;4375;52.486;13.424;2023-12-14T00:44:02;4.50;99.90
8676;DHT22;4375;52.486;13.424;2023-12-14T00:46:28;4.50;99.90
8676;DHT22;4375;52.486;13.424;2023-12-14T00:48:53;4.40;99.90
8676;DHT22;4375;52.486;13.424;2023-12-14T00:51:19;4.50;99.90
8676;DHT22;4375;52.486;13.424;2023-12-14T00:53:45;4.50;99.90
8676;DHT22;4375;52.486;13.424;2023-12-14T00:56:11;4.50;99.90
8676;DHT22;4375;52.486;13.424;2023-12-14T00:58:37;4.50;99.90
8676;DHT22;4375;52.486;13.424;2023-12-14T01:01:02;4.50;99.90
8676;DHT22;4375;52.486;13.424;2023-12-14T01:03:28;4.40;99.90
8676;DHT22;4375;52.486;13.424;2023-12-14T01:05:54;4.40;99.90
8676;DHT22;4375;52.486;13.424;2023-12-14T01:08:19;4.40;99.90
8676;DHT22;4375;52.486;13.424;2023-12-14T01:10:45;4.40;99.90
8676;DHT22;4375;52.486;13.424;2023-12-14T01:13:11;4.50;99.90
8676;DHT22;4375;52.486;13.424;2023-12-14T01:15:36;4.50;99.90
8676;DHT22;4375;52.486;13.424;2023-12-14T01:18:02;4.40;99.90
8676;DHT22;4375;52.486;13.424;2023-12-14T01:20:28;4.40;99.90
8676;DHT22;4375;52.486;13.424;2023-12-14T01:22:54;4.40;99.90
8676;DHT22;4375;52.486;13.424;2023-12-14T01:25:20;4.40;99.90
8676;DHT22;4375;52.486;13.424;2023-12-14T01:27:45;4.40;99.90
8676;DHT22;4375;52.486;13.424;2023-12-14T01:30:11;4.40;99.90
8676;DHT22;4375;52.486;13.424;2023-12-14T01:32:37;4.40;99.90
8676;DHT22;4375;52.486;13.424;2023-12-14T01:35:03;4.30;99.90
8676;DHT22;4375;52.486;13.424;2023-12-14T01:37:29;4.30;99.90
8676;DHT22;4375;52.486;13.424;2023-12-14T01:39:55;4.30;99.90
8676;DHT22;4375;52.486;13.424;2023-12-14T01:42:21;4.40;99.90
8676;DHT22;4375;52.486;13.424;2023-12-14T01:44:46;4.40;99.90
8676;DHT22;4375;52.486;13.424;2023-12-14T01:47:12;4.50;99.90
8676;DHT22;4375;52.486;13.424;2023-12-14T01:49:38;4.50;99.90
8676;DHT22;4375;52.486;13.424;2023-12-14T01:52:04;4.50;99.90
8676;DHT22;4375;52.486;13.424;2023-12-14T01:54:30;4.30;99.90
8676;DHT22;4375;52.486;13.424;2023-12-14T01:56:56;4.40;99.90
8676;DHT22;4375;52.486;13.424;2023-12-14T01:59:22;4.30;99.90
8676;DHT22;4375;52.486;13.424;2023-12-14T02:01:52;4.30;99.90
8676;DHT22;4375;52.486;13.424;2023-12-14T02:04:19;4.30;99.90
8676;DHT22;4375;52.486;13.424;2023-12-14T02:06:44;4.30;99.90
8676;DHT22;4375;52.486;13.424;2023-12-14T02:09:10;4.30;99.90
8676;DHT22;4375;52.486;13.424;2023-12-14T02:11:36;4.20;99.90
8676;DHT22;4375;52.486;13.424;2023-12-14T02:14:13;4.20;99.90
8676;DHT22;4375;52.486;13.424;2023-12-14T02:16:39;4.10;99.90
8676;DHT22;4375;52.486;13.424;2023-12-14T02:19:05;4.10;99.90
8676;DHT22;4375;52.486;13.424;2023-12-14T02:21:31;4.10;99.90
8676;DHT22;4375;52.486;13.424;2023-12-14T02:23:57;4.10;99.90
8676;DHT22;4375;52.486;13.424;2023-12-14T02:26:22;4.10;99.90
8676;DHT22;4375;52.486;13.424;2023-12-14T02:28:48;4.10;99.90
8676;DHT22;4375;52.486;13.424;2023-12-14T02:31:14;4.00;99.90
8676;DHT22;4375;52.486;13.424;2023-12-14T02:33:39;4.00;99.90
8676;DHT22;4375;52.486;13.424;2023-12-14T02:36:05;4.00;99.90
8676;DHT22;4375;52.486;13.424;2023-12-14T02:38:31;4.00;99.90
8676;DHT22;4375;52.486;13.424;2023-12-14T02:40:57;4.00;99.90
8676;DHT22;4375;52.486;13.424;2023-12-14T02:43:22;4.10;99.90
8676;DHT22;4375;52.486;13.424;2023-12-14T02:45:49;4.00;99.90
8676;DHT22;4375;52.486;13.424;2023-12-14T02:48:15;4.00;99.90
8676;DHT22;4375;52.486;13.424;2023-12-14T02:50:40;4.00;99.90
8676;DHT22;4375;52.486;13.424;2023-12-14T02:53:06;4.00;99.90
8676;DHT22;4375;52.486;13.424;2023-12-14T02:55:32;4.00;99.90
8676;DHT22;4375;52.486;13.424;2023-12-14T02:57:57;3.90;99.90
8676;DHT22;4375;52.486;13.424;2023-12-14T03:00:23;4.00;99.90
8676;DHT22;4375;52.486;13.424;2023-12-14T03:02:49;3.90;99.90
8676;DHT22;4375;52.486;13.424;2023-12-14T03:05:14;4.00;99.90
8676;DHT22;4375;52.486;13.424;2023-12-14T03:07:40;3.90;99.90
8676;DHT22;4375;52.486;13.424;2023-12-14T03:10:07;4.00;99.90
8676;DHT22;4375;52.486;13.424;2023-12-14T03:12:33;4.00;99.90
8676;DHT22;4375;52.486;13.424;2023-12-14T03:14:58;4.00;99.90
8676;DHT22;4375;52.486;13.424;2023-12-14T03:17:24;4.00;99.90
8676;DHT22;4375;52.486;13.424;2023-12-14T03:19:49;4.00;99.90
8676;DHT22;4375;52.486;13.424;2023-12-14T03:22:15;4.00;99.90
8676;DHT22;4375;52.486;13.424;2023-12-14T03:24:41;4.00;99.90
8676;DHT22;4375;52.486;13.424;2023-12-14T03:27:07;4.00;99.90
8676;DHT22;4375;52.486;13.424;2023-12-14T03:29:33;4.00;99.90
8676;DHT22;4375;52.486;13.424;2023-12-14T03:31:59;4.00;99.90
8676;DHT22;4375;52.486;13.424;2023-12-14T03:34:25;4.00;99.90
8676;DHT22;4375;52.486;13.424;2023-12-14T03:36:50;4.00;99.90
8676;DHT22;4375;52.486;13.424;2023-12-14T03:39:18;4.00;99.90
8676;DHT22;4375;52.486;13.424;2023-12-14T03:41:44;3.90;99.90
8676;DHT22;4375;52.486;13.424;2023-12-14T03:44:10;3.90;99.90
8676;DHT22;4375;52.486;13.424;2023-12-14T03:46:36;3.90;99.90
8676;DHT22;4375;52.486;13.424;2023-12-14T03:49:02;3.90;99.90
8676;DHT22;4375;52.486;13.424;2023-12-14T03:51:28;3.80;99.90
8676;DHT22;4375;52.486;13.424;2023-12-14T03:53:54;3.80;99.90
8676;DHT22;4375;52.486;13.424;2023-12-14T03:56:20;3.80;99.90
8676;DHT22;4375;52.486;13.424;2023-12-14T03:58:45;3.90;99.90
8676;DHT22;4375;52.486;13.424;2023-12-14T04:01:20;3.90;99.90
8676;DHT22;4375;52.486;13.424;2023-12-14T04:03:47;3.90;99.90
8676;DHT22;4375;52.486;13.424;2023-12-14T04:06:14;3.90;99.90
8676;DHT22;4375;52.486;13.424;2023-12-14T04:08:40;4.00;99.90
8676;DHT22;4375;52.486;13.424;2023-12-14T04:11:06;4.00;99.90
8676;DHT22;4375;52.486;13.424;2023-12-14T04:13:33;4.00;99.90
8676;DHT22;4375;52.486;13.424;2023-12-14T04:15:58;4.00;99.90
8676;DHT22;4375;52.486;13.424;2023-12-14T04:18:24;4.00;99.90
8676;DHT22;4375;52.486;13.424;2023-12-14T04:20:50;4.00;99.90
8676;DHT22;4375;52.486;13.424;2023-12-14T04:23:16;3.90;99.90
8676;DHT22;4375;52.486;13.424;2023-12-14T04:25:42;3.90;99.90
8676;DHT22;4375;52.486;13.424;2023-12-14T04:28:07;3.90;99.90
8676;DHT22;4375;52.486;13.424;2023-12-14T04:30:33;3.90;99.90
8676;DHT22;4375;52.486;13.424;2023-12-14T04:32:59;3.90;99.90
8676;DHT22;4375;52.486;13.424;2023-12-14T04:35:24;4.00;99.90
8676;DHT22;4375;52.486;13.424;2023-12-14T04:37:50;3.90;99.90
8676;DHT22;4375;52.486;13.424;2023-12-14T04:40:16;3.90;99.90
8676;DHT22;4375;52.486;13.424;2023-12-14T04:42:41;3.90;99.90
8676;DHT22;4375;52.486;13.424;2023-12-14T04:45:07;3.90;99.90
8676;DHT22;4375;52.486;13.424;2023-12-14T04:47:35;4.00;99.90
8676;DHT22;4375;52.486;13.424;2023-12-14T04:50:02;4.00;99.90
8676;DHT22;4375;52.486;13.424;2023-12-14T04:52:27;4.00;99.90
8676;DHT22;4375;52.486;13.424;2023-12-14T04:54:53;4.20;99.90
8676;DHT22;4375;52.486;13.424;2023-12-14T04:57:19;4.10;99.90
8676;DHT22;4375;52.486;13.424;2023-12-14T04:59:44;4.00;99.90
8676;DHT22;4375;52.486;13.424;2023-12-14T05:02:10;4.00;99.90
8676;DHT22;4375;52.486;13.424;2023-12-14T05:04:36;4.00;99.90
8676;DHT22;4375;52.486;13.424;2023-12-14T05:07:01;4.00;99.90
8676;DHT22;4375;52.486;13.424;2023-12-14T05:09:27;4.00;99.90
8676;DHT22;4375;52.486;13.424;2023-12-14T05:11:53;4.00;99.90
8676;DHT22;4375;52.486;13.424;2023-12-14T05:14:19;4.00;99.90
8676;DHT22;4375;52.486;13.424;2023-12-14T05:16:45;4.00;99.90
8676;DHT22;4375;52.486;13.424;2023-12-14T05:19:11;4.00;99.90
8676;DHT22;4375;52.486;13.424;2023-12-14T05:21:38;3.90;99.90
8676;DHT22;4375;52.486;13.424;2023-12-14T05:24:04;4.00;99.90
8676;DHT22;4375;52.486;13.424;2023-12-14T05:26:30;4.00;99.90
8676;DHT22;4375;52.486;13.424;2023-12-14T05:28:55;4.00;99.90
8676;DHT22;4375;52.486;13.424;2023-12-14T05:31:21;4.10;99.90
8676;DHT22;4375;52.486;13.424;2023-12-14T05:33:46;4.10;99.90
8676;DHT22;4375;52.486;13.424;2023-12-14T05:36:12;4.00;99.90
8676;DHT22;4375;52.486;13.424;2023-12-14T05:38:39;4.10;99.90
8676;DHT22;4375;52.486;13.424;2023-12-14T05:41:05;4.10;99.90
8676;DHT22;4375;52.486;13.424;2023-12-14T05:43:30;4.10;99.90
8676;DHT22;4375;52.486;13.424;2023-12-14T05:45:56;4.10;99.90
8676;DHT22;4375;52.486;13.424;2023-12-14T05:48:22;4.00;99.90
8676;DHT22;4375;52.486;13.424;2023-12-14T05:50:48;4.00;99.90
8676;DHT22;4375;52.486;13.424;2023-12-14T05:53:14;4.10;99.90
8676;DHT22;4375;52.486;13.424;2023-12-14T05:55:41;4.10;99.90
8676;DHT22;4375;52.486;13.424;2023-12-14T05:58:07;4.10;99.90
8676;DHT22;4375;52.486;13.424;2023-12-14T06:00:33;4.20;99.90
8676;DHT22;4375;52.486;13.424;2023-12-14T06:03:00;4.20;99.90
8676;DHT22;4375;52.486;13.424;2023-12-14T06:05:26;4.10;99.90
8676;DHT22;4375;52.486;13.424;2023-12-14T06:07:52;4.10;99.90
8676;DHT22;4375;52.486;13.424;2023-12-14T06:10:17;4.10;99.90
8676;DHT22;4375;52.486;13.424;2023-12-14T06:12:43;4.10;99.90
8676;DHT22;4375;52.486;13.424;2023-12-14T06:15:09;4.10;99.90
8676;DHT22;4375;52.486;13.424;2023-12-14T06:17:36;4.10;99.90
8676;DHT22;4375;52.486;13.424;2023-12-14T06:20:05;4.00;99.90
8676;DHT22;4375;52.486;13.424;2023-12-14T06:22:31;4.00;99.90
8676;DHT22;4375;52.486;13.424;2023-12-14T06:24:56;4.10;99.90
8676;DHT22;4375;52.486;13.424;2023-12-14T06:27:22;4.20;99.90
8676;DHT22;4375;52.486;13.424;2023-12-14T06:29:52;4.20;99.90
8676;DHT22;4375;52.486;13.424;2023-12-14T06:32:17;4.10;99.90
8676;DHT22;4375;52.486;13.424;2023-12-14T06:34:43;4.00;99.90
8676;DHT22;4375;52.486;13.424;2023-12-14T06:37:09;4.10;99.90
8676;DHT22;4375;52.486;13.424;2023-12-14T06:39:34;4.00;99.90
8676;DHT22;4375;52.486;13.424;2023-12-14T06:42:01;4.00;99.90
8676;DHT22;4375;52.486;13.424;2023-12-14T06:44:27;4.00;99.90
8676;DHT22;4375;52.486;13.424;2023-12-14T06:46:53;4.00;99.90
8676;DHT22;4375;52.486;13.424;2023-12-14T06:49:20;4.10;99.90
8676;DHT22;4375;52.486;13.424;2023-12-14T06:51:46;4.00;99.90
8676;DHT22;4375;52.486;13.424;2023-12-14T06:54:11;4.00;99.90
8676;DHT22;4375;52.486;13.424;2023-12-14T06:56:37;4.00;99.90
8676;DHT22;4375;52.486;13.424;2023-12-14T06:59:03;4.10;99.90
8676;DHT22;4375;52.486;13.424;2023-12-14T07:01:28;4.10;99.90
8676;DHT22;4375;52.486;13.424;2023-12-14T07:03:54;4.10;99.90
8676;DHT22;4375;52.486;13.424;2023-12-14T07:06:20;4.10;99.90
8676;DHT22;4375;52.486;13.424;2023-12-14T07:08:46;4.10;99.90
8676;DHT22;4375;52.486;13.424;2023-12-14T07:11:13;4.10;99.90
8676;DHT22;4375;52.486;13.424;2023-12-14T07:13:39;4.10;99.90
8676;DHT22;4375;52.486;13.424;2023-12-14T07:16:09;4.10;99.90
8676;DHT22;4375;52.486;13.424;2023-12-14T07:18:41;4.20;99.90
8676;DHT22;4375;52.486;13.424;2023-12-14T07:21:07;4.20;99.90
8676;DHT22;4375;52.486;13.424;2023-12-14T07:23:34;4.20;99.90
8676;DHT22;4375;52.486;13.424;2023-12-14T07:25:59;4.20;99.90
8676;DHT22;4375;52.486;13.424;2023-12-14T07:28:25;4.20;99.90
8676;DHT22;4375;52.486;13.424;2023-12-14T07:30:51;4.10;99.90
8676;DHT22;4375;52.486;13.424;2023-12-14T07:33:17;4.10;99.90
8676;DHT22;4375;52.486;13.424;2023-12-14T07:35:42;4.10;99.90
8676;DHT22;4375;52.486;13.424;2023-12-14T07:38:09;4.20;99.90
8676;DHT22;4375;52.486;13.424;2023-12-14T07:40:35;4.20;99.90
8676;DHT22;4375;52.486;13.424;2023-12-14T07:43:01;4.20;99.90
8676;DHT22;4375;52.486;13.424;2023-12-14T07:45:26;4.20;99.90
8676;DHT22;4375;52.486;13.424;2023-12-14T07:47:52;4.20;99.90
8676;DHT22;4375;52.486;13.424;2023-12-14T07:50:17;4.20;99.90
8676;DHT22;4375;52.486;13.424;2023-12-14T07:52:44;4.20;99.90
8676;DHT22;4375;52.486;13.424;2023-12-14T07:55:10;4.20;99.90
8676;DHT22;4375;52.486;13.424;2023-12-14T07:57:35;4.20;99.90
8676;DHT22;4375;52.486;13.424;2023-12-14T08:00:01;4.20;99.90
8676;DHT22;4375;52.486;13.424;2023-12-14T08:02:27;4.30;99.90
8676;DHT22;4375;52.486;13.424;2023-12-14T08:04:52;4.30;99.90
8676;DHT22;4375;52.486;13.424;2023-12-14T08:07:18;4.30;99.90
8676;DHT22;4375;52.486;13.424;2023-12-14T08:09:43;4.30;99.90
8676;DHT22;4375;52.486;13.424;2023-12-14T08:12:09;4.30;99.90
8676;DHT22;4375;52.486;13.424;2023-12-14T08:14:35;4.40;99.90
8676;DHT22;4375;52.486;13.424;2023-12-14T08:17:03;4.30;99.90
8676;DHT22;4375;52.486;13.424;2023-12-14T08:19:28;4.30;99.90
8676;DHT22;4375;52.486;13.424;2023-12-14T08:21:54;4.20;99.90
8676;DHT22;4375;52.486;13.424;2023-12-14T08:24:20;4.30;99.90
8676;DHT22;4375;52.486;13.424;2023-12-14T08:26:45;4.30;99.90
8676;DHT22;4375;52.486;13.424;2023-12-14T08:29:11;4.40;99.90
8676;DHT22;4375;52.486;13.424;2023-12-14T08:31:37;4.40;99.90
8676;DHT22;4375;52.486;13.424;2023-12-14T08:34:02;4.30;99.90
8676;DHT22;4375;52.486;13.424;2023-12-14T08:36:29;4.30;99.90
8676;DHT22;4375;52.486;13.424;2023-12-14T08:38:55;4.30;99.90
8676;DHT22;4375;52.486;13.424;2023-12-14T08:41:20;4.30;99.90
8676;DHT22;4375;52.486;13.424;2023-12-14T08:43:46;4.30;99.90
8676;DHT22;4375;52.486;13.424;2023-12-14T08:46:12;4.30;99.90
8676;DHT22;4375;52.486;13.424;2023-12-14T08:48:37;4.30;99.90
8676;DHT22;4375;52.486;13.424;2023-12-14T08:51:03;4.30;99.90
8676;DHT22;4375;52.486;13.424;2023-12-14T08:53:29;4.30;99.90
8676;DHT22;4375;52.486;13.424;2023-12-14T08:55:55;4.30;99.90
8676;DHT22;4375;52.486;13.424;2023-12-14T08:58:21;4.30;99.90
8676;DHT22;4375;52.486;13.424;2023-12-14T09:00:47;4.40;99.90
8676;DHT22;4375;52.486;13.424;2023-12-14T09:03:12;4.40;99.90
8676;DHT22;4375;52.486;13.424;2023-12-14T09:05:38;4.40;99.90
8676;DHT22;4375;52.486;13.424;2023-12-14T09:08:07;4.40;99.90
8676;DHT22;4375;52.486;13.424;2023-12-14T09:10:33;4.40;99.90
8676;DHT22;4375;52.486;13.424;2023-12-14T09:12:59;4.50;99.90
8676;DHT22;4375;52.486;13.424;2023-12-14T09:15:30;4.50;99.90
8676;DHT22;4375;52.486;13.424;2023-12-14T09:17:56;4.70;99.90
8676;DHT22;4375;52.486;13.424;2023-12-14T09:20:22;4.70;99.90
8676;DHT22;4375;52.486;13.424;2023-12-14T09:22:48;4.70;99.90
8676;DHT22;4375;52.486;13.424;2023-12-14T09:25:13;4.70;99.90
8676;DHT22;4375;52.486;13.424;2023-12-14T09:27:39;4.70;99.90
8676;DHT22;4375;52.486;13.424;2023-12-14T09:30:05;4.60;99.90
8676;DHT22;4375;52.486;13.424;2023-12-14T09:32:31;4.70;99.90
8676;DHT22;4375;52.486;13.424;2023-12-14T09:34:57;4.60;99.90
8676;DHT22;4375;52.486;13.424;2023-12-14T09:37:22;4.60;99.90
8676;DHT22;4375;52.486;13.424;2023-12-14T09:39:48;4.60;99.90
8676;DHT22;4375;52.486;13.424;2023-12-14T09:42:18;4.60;99.90
8676;DHT22;4375;52.486;13.424;2023-12-14T09:44:49;4.60;99.90
8676;DHT22;4375;52.486;13.424;2023-12-14T09:47:15;4.60;99.90
8676;DHT22;4375;52.486;13.424;2023-12-14T09:49:42;4.50;99.90
8676;DHT22;4375;52.486;13.424;2023-12-14T09:52:10;4.50;99.90
8676;DHT22;4375;52.486;13.424;2023-12-14T09:54:36;4.60;99.90
8676;DHT22;4375;52.486;13.424;2023-12-14T09:57:02;4.70;99.90
8676;DHT22;4375;52.486;13.424;2023-12-14T09:59:28;4.70;99.90
8676;DHT22;4375;52.486;13.424;2023-12-14T10:02:11;4.70;99.90
8676;DHT22;4375;52.486;13.424;2023-12-14T10:04:38;4.80;99.90
8676;DHT22;4375;52.486;13.424;2023-12-14T10:07:03;4.80;99.90
8676;DHT22;4375;52.486;13.424;2023-12-14T10:09:36;4.80;99.90
8676;DHT22;4375;52.486;13.424;2023-12-14T10:12:07;4.80;99.90
8676;DHT22;4375;52.486;13.424;2023-12-14T10:14:33;5.00;99.90
8676;DHT22;4375;52.486;13.424;2023-12-14T10:17:17;4.90;99.90
8676;DHT22;4375;52.486;13.424;2023-12-14T10:19:43;5.00;99.90
8676;DHT22;4375;52.486;13.424;2023-12-14T10:22:10;5.00;99.90
8676;DHT22;4375;52.486;13.424;2023-12-14T10:24:36;4.90;99.90
8676;DHT22;4375;52.486;13.424;2023-12-14T10:27:06;4.80;99.90
8676;DHT22;4375;52.486;13.424;2023-12-14T10:29:37;4.80;99.90
8676;DHT22;4375;52.486;13.424;2023-12-14T10:32:04;4.60;99.90
8676;DHT22;4375;52.486;13.424;2023-12-14T10:34:32;4.60;99.90
8676;DHT22;4375;52.486;13.424;2023-12-14T10:36:58;4.70;99.90
8676;DHT22;4375;52.486;13.424;2023-12-14T10:39:25;4.70;99.90
8676;DHT22;4375;52.486;13.424;2023-12-14T10:41:52;4.80;99.90
8676;DHT22;4375;52.486;13.424;2023-12-14T10:44:26;4.90;99.90
8676;DHT22;4375;52.486;13.424;2023-12-14T10:46:55;5.10;99.90
8676;DHT22;4375;52.486;13.424;2023-12-14T10:49:25;5.10;99.90
8676;DHT22;4375;52.486;13.424;2023-12-14T10:51:55;5.10;99.90
8676;DHT22;4375;52.486;13.424;2023-12-14T10:54:24;5.10;99.90
8676;DHT22;4375;52.486;13.424;2023-12-14T10:56:54;5.00;99.90
8676;DHT22;4375;52.486;13.424;2023-12-14T10:59:20;5.00;99.90
8676;DHT22;4375;52.486;13.424;2023-12-14T11:01:54;4.80;99.90
8676;DHT22;4375;52.486;13.424;2023-12-14T11:04:24;4.80;99.90
8676;DHT22;4375;52.486;13.424;2023-12-14T11:06:53;4.80;99.90
8676;DHT22;4375;52.486;13.424;2023-12-14T11:09:19;4.80;99.90
8676;DHT22;4375;52.486;13.424;2023-12-14T11:14:23;5.00;99.90
8676;DHT22;4375;52.486;13.424;2023-12-14T11:16:50;4.70;99.90
8676;DHT22;4375;52.486;13.424;2023-12-14T11:22:09;5.00;99.90
8676;DHT22;4375;52.486;13.424;2023-12-14T11:24:35;5.20;99.90
8676;DHT22;4375;52.486;13.424;2023-12-14T11:27:06;5.00;99.90
8676;DHT22;4375;52.486;13.424;2023-12-14T11:29:32;5.00;99.90
8676;DHT22;4375;52.486;13.424;2023-12-14T11:31:58;5.10;99.90
8676;DHT22;4375;52.486;13.424;2023-12-14T11:34:27;5.20;99.90
8676;DHT22;4375;52.486;13.424;2023-12-14T11:36:56;5.10;99.90
8676;DHT22;4375;52.486;13.424;2023-12-14T11:39:21;5.10;99.90
8676;DHT22;4375;52.486;13.424;2023-12-14T11:42:01;5.10;99.90
8676;DHT22;4375;52.486;13.424;2023-12-14T11:44:26;4.90;99.90
8676;DHT22;4375;52.486;13.424;2023-12-14T11:46:52;4.80;99.90
8676;DHT22;4375;52.486;13.424;2023-12-14T11:49:17;4.80;99.90
8676;DHT22;4375;52.486;13.424;2023-12-14T11:51:46;4.80;99.90
8676;DHT22;4375;52.486;13.424;2023-12-14T11:54:13;4.70;99.90
8676;DHT22;4375;52.486;13.424;2023-12-14T11:56:39;4.70;99.90
8676;DHT22;4375;52.486;13.424;2023-12-14T11:59:04;4.80;99.90
8676;DHT22;4375;52.486;13.424;2023-12-14T12:01:30;4.90;99.90
8676;DHT22;4375;52.486;13.424;2023-12-14T12:03:57;4.80;99.90
8676;DHT22;4375;52.486;13.424;2023-12-14T12:06:33;4.80;99.90
8676;DHT22;4375;52.486;13.424;2023-12-14T12:08:59;4.80;99.90
8676;DHT22;4375;52.486;13.424;2023-12-14T12:11:24;4.90;99.90
8676;DHT22;4375;52.486;13.424;2023-12-14T12:13:56;5.00;99.90
8676;DHT22;4375;52.486;13.424;2023-12-14T12:16:22;5.10;99.90
8676;DHT22;4375;52.486;13.424;2023-12-14T12:18:48;5.10;99.90
8676;DHT22;4375;52.486;13.424;2023-12-14T12:21:16;5.00;99.90
8676;DHT22;4375;52.486;13.424;2023-12-14T12:23:41;5.00;99.90
8676;DHT22;4375;52.486;13.424;2023-12-14T12:26:07;5.00;99.90
8676;DHT22;4375;52.486;13.424;2023-12-14T12:28:33;5.00;99.90
8676;DHT22;4375;52.486;13.424;2023-12-14T12:30:59;5.00;99.90
8676;DHT22;4375;52.486;13.424;2023-12-14T12:33:25;5.00;99.90
8676;DHT22;4375;52.486;13.424;2023-12-14T12:35:52;5.00;99.90
8676;DHT22;4375;52.486;13.424;2023-12-14T12:38:17;5.10;99.90
8676;DHT22;4375;52.486;13.424;2023-12-14T12:40:44;5.20;99.90
8676;DHT22;4375;52.486;13.424;2023-12-14T12:43:13;5.30;99.90
8676;DHT22;4375;52.486;13.424;2023-12-14T12:45:39;5.10;99.90
8676;DHT22;4375;52.486;13.424;2023-12-14T12:48:05;5.00;99.90
8676;DHT22;4375;52.486;13.424;2023-12-14T12:50:32;4.90;99.90
8676;DHT22;4375;52.486;13.424;2023-12-14T12:52:58;5.00;99.90
8676;DHT22;4375;52.486;13.424;2023-12-14T12:55:24;4.90;99.90
8676;DHT22;4375;52.486;13.424;2023-12-14T12:57:49;5.00;99.90
8676;DHT22;4375;52.486;13.424;2023-12-14T13:00:15;5.00;99.90
8676;DHT22;4375;52.486;13.424;2023-12-14T13:02:43;5.00;99.90
8676;DHT22;4375;52.486;13.424;2023-12-14T13:05:10;5.00;99.90
8676;DHT22;4375;52.486;13.424;2023-12-14T13:07:36;5.00;99.90
8676;DHT22;4375;52.486;13.424;2023-12-14T13:10:03;5.00;99.90
8676;DHT22;4375;52.486;13.424;2023-12-14T13:12:29;5.00;99.90
8676;DHT22;4375;52.486;13.424;2023-12-14T13:14:55;5.00;99.90
8676;DHT22;4375;52.486;13.424;2023-12-14T13:17:21;5.10;99.90
8676;DHT22;4375;52.486;13.424;2023-12-14T13:19:47;5.00;99.90
8676;DHT22;4375;52.486;13.424;2023-12-14T13:22:13;5.00;99.90
8676;DHT22;4375;52.486;13.424;2023-12-14T13:24:39;4.80;99.90
8676;DHT22;4375;52.486;13.424;2023-12-14T13:27:05;4.80;99.90
8676;DHT22;4375;52.486;13.424;2023-12-14T13:29:31;4.80;99.90
8676;DHT22;4375;52.486;13.424;2023-12-14T13:31:58;4.80;99.90
8676;DHT22;4375;52.486;13.424;2023-12-14T13:34:24;4.80;99.90
8676;DHT22;4375;52.486;13.424;2023-12-14T13:36:50;4.80;99.90
8676;DHT22;4375;52.486;13.424;2023-12-14T13:39:16;4.90;99.90
8676;DHT22;4375;52.486;13.424;2023-12-14T13:41:42;4.80;99.90
8676;DHT22;4375;52.486;13.424;2023-12-14T13:44:07;4.70;99.90
8676;DHT22;4375;52.486;13.424;2023-12-14T13:46:33;4.70;99.90
8676;DHT22;4375;52.486;13.424;2023-12-14T13:48:58;4.70;99.90
8676;DHT22;4375;52.486;13.424;2023-12-14T13:51:26;4.70;99.90
8676;DHT22;4375;52.486;13.424;2023-12-14T13:53:51;4.70;99.90
8676;DHT22;4375;52.486;13.424;2023-12-14T13:56:17;4.70;99.90
8676;DHT22;4375;52.486;13.424;2023-12-14T13:58:43;4.70;99.90
8676;DHT22;4375;52.486;13.424;2023-12-14T14:01:09;4.70;99.90
8676;DHT22;4375;52.486;13.424;2023-12-14T14:03:35;4.80;99.90
8676;DHT22;4375;52.486;13.424;2023-12-14T14:06:03;4.70;99.90
8676;DHT22;4375;52.486;13.424;2023-12-14T14:08:29;4.70;99.90
8676;DHT22;4375;52.486;13.424;2023-12-14T14:10:57;4.70;99.90
8676;DHT22;4375;52.486;13.424;2023-12-14T14:13:23;4.70;99.90
8676;DHT22;4375;52.486;13.424;2023-12-14T14:15:49;4.70;99.90
8676;DHT22;4375;52.486;13.424;2023-12-14T14:18:14;4.70;99.90
8676;DHT22;4375;52.486;13.424;2023-12-14T14:20:40;4.70;99.90
8676;DHT22;4375;52.486;13.424;2023-12-14T14:23:06;4.60;99.90
8676;DHT22;4375;52.486;13.424;2023-12-14T14:25:31;4.60;99.90
8676;DHT22;4375;52.486;13.424;2023-12-14T14:27:57;4.50;99.90
8676;DHT22;4375;52.486;13.424;2023-12-14T14:30:24;4.60;99.90
8676;DHT22;4375;52.486;13.424;2023-12-14T14:32:49;4.60;99.90
8676;DHT22;4375;52.486;13.424;2023-12-14T14:35:15;4.60;99.90
8676;DHT22;4375;52.486;13.424;2023-12-14T14:37:41;4.60;99.90
8676;DHT22;4375;52.486;13.424;2023-12-14T14:40:12;4.60;99.90
8676;DHT22;4375;52.486;13.424;2023-12-14T14:42:39;4.60;99.90
8676;DHT22;4375;52.486;13.424;2023-12-14T14:45:06;4.70;99.90
8676;DHT22;4375;52.486;13.424;2023-12-14T14:47:32;4.60;99.90
8676;DHT22;4375;52.486;13.424;2023-12-14T14:49:57;4.60;99.90
8676;DHT22;4375;52.486;13.424;2023-12-14T14:52:28;4.50;99.90
8676;DHT22;4375;52.486;13.424;2023-12-14T14:54:54;4.50;99.90
8676;DHT22;4375;52.486;13.424;2023-12-14T14:57:19;4.60;99.90
8676;DHT22;4375;52.486;13.424;2023-12-14T14:59:45;4.70;99.90
8676;DHT22;4375;52.486;13.424;2023-12-14T15:02:11;4.70;99.90
8676;DHT22;4375;52.486;13.424;2023-12-14T15:04:36;4.70;99.90
8676;DHT22;4375;52.486;13.424;2023-12-14T15:07:02;4.70;99.90
8676;DHT22;4375;52.486;13.424;2023-12-14T15:09:28;4.60;99.90
8676;DHT22;4375;52.486;13.424;2023-12-14T15:11:54;4.70;99.90
8676;DHT22;4375;52.486;13.424;2023-12-14T15:14:19;4.70;99.90
8676;DHT22;4375;52.486;13.424;2023-12-14T15:16:45;4.60;99.90
8676;DHT22;4375;52.486;13.424;2023-12-14T15:19:12;4.60;99.90
8676;DHT22;4375;52.486;13.424;2023-12-14T15:21:37;4.60;99.90
8676;DHT22;4375;52.486;13.424;2023-12-14T15:24:03;4.60;99.90
8676;DHT22;4375;52.486;13.424;2023-12-14T15:26:29;4.60;99.90
8676;DHT22;4375;52.486;13.424;2023-12-14T15:29:00;4.70;99.90
8676;DHT22;4375;52.486;13.424;2023-12-14T15:31:34;4.70;99.90
8676;DHT22;4375;52.486;13.424;2023-12-14T15:33:59;4.70;99.90
8676;DHT22;4375;52.486;13.424;2023-12-14T15:36:27;4.60;99.90
8676;DHT22;4375;52.486;13.424;2023-12-14T15:38:52;4.60;99.90
8676;DHT22;4375;52.486;13.424;2023-12-14T15:41:18;4.60;99.90
8676;DHT22;4375;52.486;13.424;2023-12-14T15:43:44;4.60;99.90
8676;DHT22;4375;52.486;13.424;2023-12-14T15:46:10;4.60;99.90
8676;DHT22;4375;52.486;13.424;2023-12-14T15:48:36;4.60;99.90
8676;DHT22;4375;52.486;13.424;2023-12-14T15:51:03;4.70;99.90
8676;DHT22;4375;52.486;13.424;2023-12-14T15:53:31;4.70;99.90
8676;DHT22;4375;52.486;13.424;2023-12-14T15:55:57;4.70;99.90
8676;DHT22;4375;52.486;13.424;2023-12-14T15:58:23;4.80;99.90
8676;DHT22;4375;52.486;13.424;2023-12-14T16:00:49;4.90;99.90